Adrian, Michigan
Current Conditions -  °F | °C
As of 1:53 PM on Thursday 30 Oct 2014 (Local Time) from KADG Reporting Station
Overcast Overcast  
Wind Chill: 47°   Ceiling: 4100
Heat Index: 47°   Visibility: 10mi
Dew Point: 34°   Wind: 3mph
Humidity: 61%   Direction: 270°W
Pressure: 30.12"   Gusts: NA
Location:  41.9°N, 84.04°W
Report Text: KADG 301753Z AUTO 27003KT 10SM OVC041 08/01 A3012 RMK AO2 SLP204 T00830011 10083 20000 58013
Loading
Personal Weather Stations






























Interactive Weather Map
Tropical Storm Tracking
New forecast layout! Learn more

10-Day Weather Forecast

Advertisements
Track Severe Weather on mobile